Impacts TAF Board
For situational awareness. Not to be used for flight planning purposes.
IDs:

KHUM - Houma/Terrebonne Arp, LA, US

Issued at 2333 UTC 29 Jun 2022
Updated at 0427 UTC 30 Jun 2022
Potential Impact None Slight Moderate High
Time0415Z 30/05Z 30/06Z 30/07Z 30/08Z 30/09Z 30/10Z 30/11Z 30/12Z 30/13Z 30/14Z 30/15Z 30/16Z 30/17Z>>
Type OBS PRVL PRVL PRVL PRVL PRVL PRVL PRVL PRVL PRVL PRVL PRVL PRVL PRVL
VIS 10 >6 >6 >6 >6 >6 >6 >6 >6 >6 >6 >6 >6 >6
CIG -- 110 110 110 110 110 110 110 110 110 110 110 45 45
Cover CLR BKN BKN BKN BKN BKN BKN BKN BKN BKN BKN BKN BKN BKN
FltCat VFR VFR VFR VFR VFR VFR VFR VFR VFR VFR VFR VFR VFR VFR
WX -- -- -- -- -- -- -- -- -- -- -- -- VCTS VCTS
WDir VRB VRB VRB VRB VRB VRB VRB VRB VRB VRB VRB VRB 110 110
WSpd 0 0 0 0 0 0 0 0 0 0 0 0 7 7
WGst -- -- -- -- -- -- -- -- -- -- -- -- -- --
WSHgt -- -- -- -- -- -- -- -- -- -- -- -- -- --
WSDir -- -- -- -- -- -- -- -- -- -- -- -- -- --
WSSpd -- -- -- -- -- -- -- -- -- -- -- -- -- --
Raw TAF
KHUM 292333Z 3000/3024 00000KT P6SM SCT030 BKN110 BKN250
  FM301600 11007KT P6SM VCTS SCT025CB BKN045
  FM302000 15008KT P6SM -SHRA VCTS SCT025CB BKN045


Raw METAR
KHUM 300415Z AUTO 00000KT 10SM CLR 24/23 A3011 RMK AO2 T02440233
KHUM 300355Z AUTO 00000KT 10SM CLR 25/23 A3011 RMK AO2 T02450231
KHUM 300335Z AUTO 00000KT 10SM CLR 25/23 A3011 RMK AO2 T02490231
KHUM 300315Z AUTO 00000KT 10SM CLR 25/23 A3010 RMK AO2 T02500231
KHUM 300255Z AUTO 00000KT 10SM CLR 25/23 A3010 RMK AO2 T02520230
KHUM 300235Z AUTO 00000KT 10SM CLR 25/23 A3010 RMK AO2 T02530230
KHUM 300215Z AUTO 05004KT 7SM CLR 26/23 A3009 RMK AO2 T02550231
KHUM 300155Z AUTO 00000KT 7SM CLR 26/24 A3009 RMK AO2 T02550235
KHUM 300135Z AUTO 35003KT 7SM CLR 26/23 A3008 RMK AO2 T02550232

METAR Board
Radar Display
Forecast Discussion
For situational awareness. Not to be used for flight planning purposes.